createdAt,value
2022-09-30T00:01:04.754Z,16.33
2022-09-30T00:03:34.523Z,15.13
2022-09-30T00:06:08.151Z,18.48
2022-09-30T00:09:01.871Z,16.70
2022-09-30T00:11:34.301Z,14.00
2022-09-30T00:14:08.845Z,16.15
2022-09-30T00:16:37.329Z,16.20
2022-09-30T00:19:23.528Z,14.80
2022-09-30T00:21:52.239Z,18.55
2022-09-30T00:24:26.502Z,16.98
2022-09-30T00:26:54.109Z,16.40
2022-09-30T00:29:24.361Z,18.30
2022-09-30T00:31:54.956Z,15.68
2022-09-30T00:34:25.094Z,16.75
2022-09-30T00:37:02.311Z,15.57
2022-09-30T00:39:32.687Z,17.58
2022-09-30T00:42:06.939Z,17.00
2022-09-30T00:45:05.500Z,20.23
2022-09-30T00:47:45.350Z,16.45
2022-09-30T00:50:24.615Z,15.00
2022-09-30T00:53:17.256Z,16.20
2022-09-30T00:55:56.966Z,16.58
2022-09-30T00:58:38.784Z,13.77
2022-09-30T01:01:22.757Z,14.68
2022-09-30T01:04:00.299Z,13.32
2022-09-30T01:06:40.948Z,12.10
2022-09-30T01:09:14.349Z,16.65
2022-09-30T01:14:45.021Z,15.38
2022-09-30T01:17:35.083Z,15.35
2022-09-30T01:20:21.847Z,11.45
2022-09-30T01:23:18.792Z,14.80
2022-09-30T01:26:22.270Z,13.88
2022-09-30T01:29:20.099Z,14.57
2022-09-30T01:32:06.257Z,13.25
2022-09-30T01:35:10.060Z,12.70
2022-09-30T01:38:00.610Z,14.25
2022-09-30T01:40:37.601Z,14.38
2022-09-30T01:43:35.107Z,14.98
2022-09-30T01:46:07.309Z,13.23
2022-09-30T01:49:00.959Z,14.27
2022-09-30T01:51:28.413Z,15.48
2022-09-30T01:54:11.039Z,15.85
2022-09-30T01:59:40.059Z,13.90
2022-09-30T02:02:17.278Z,14.75
2022-09-30T02:04:52.371Z,14.50
2022-09-30T02:07:42.665Z,15.68
2022-09-30T02:10:18.731Z,13.70
2022-09-30T02:13:00.695Z,16.08
2022-09-30T02:15:40.799Z,14.00
2022-09-30T02:18:30.893Z,13.18
2022-09-30T02:21:06.360Z,12.27
2022-09-30T02:23:44.128Z,13.30
2022-09-30T02:26:42.024Z,12.23
2022-09-30T02:29:16.835Z,11.40
2022-09-30T02:32:10.704Z,13.05
2022-09-30T02:34:41.876Z,12.75
2022-09-30T02:37:20.947Z,12.82
2022-09-30T02:40:05.356Z,13.13
2022-09-30T02:42:37.671Z,13.85
2022-09-30T02:45:17.253Z,13.25
2022-09-30T02:47:56.878Z,14.27
2022-09-30T02:50:31.530Z,12.40
2022-09-30T02:53:32.290Z,13.35
2022-09-30T02:56:22.284Z,12.25
2022-09-30T02:59:04.738Z,13.98
2022-09-30T03:01:35.567Z,11.85
2022-09-30T03:04:18.940Z,13.20
2022-09-30T03:07:15.148Z,12.98
2022-09-30T03:09:54.648Z,12.98
2022-09-30T03:12:29.636Z,13.57
2022-09-30T03:15:01.984Z,10.23
2022-09-30T03:17:34.234Z,13.90
2022-09-30T03:20:25.692Z,11.15
2022-09-30T03:22:56.177Z,14.10
2022-09-30T03:25:32.857Z,12.18
2022-09-30T03:28:21.783Z,12.32
2022-09-30T03:30:58.126Z,10.52
2022-09-30T03:33:36.484Z,10.70
2022-09-30T03:36:16.513Z,11.80
2022-09-30T03:38:55.867Z,12.98
2022-09-30T03:41:36.839Z,11.68
2022-09-30T03:44:13.132Z,13.95
2022-09-30T03:46:45.845Z,12.25
2022-09-30T03:49:20.395Z,12.35
2022-09-30T03:51:53.386Z,13.35
2022-09-30T03:54:24.115Z,12.35
2022-09-30T03:56:56.637Z,12.20
2022-09-30T03:59:25.816Z,11.20
2022-09-30T04:02:05.004Z,13.05
2022-09-30T04:04:37.764Z,12.30
2022-09-30T04:07:05.669Z,16.45
2022-09-30T04:09:41.965Z,14.77
2022-09-30T04:12:15.502Z,15.77
2022-09-30T04:14:55.039Z,15.68
2022-09-30T04:17:25.367Z,14.15
2022-09-30T04:19:53.421Z,15.43
2022-09-30T04:22:26.284Z,14.98
2022-09-30T04:24:57.187Z,16.27
2022-09-30T04:27:33.134Z,15.95
2022-09-30T04:30:07.169Z,14.00
2022-09-30T04:32:40.335Z,15.38
2022-09-30T04:35:13.458Z,17.83
2022-09-30T04:37:57.963Z,16.00
2022-09-30T04:40:29.197Z,15.02
2022-09-30T04:42:59.777Z,15.85
2022-09-30T04:45:30.754Z,17.10
2022-09-30T04:48:00.777Z,15.77
2022-09-30T04:50:37.137Z,16.30
2022-09-30T04:53:19.859Z,15.88
2022-09-30T04:55:47.613Z,16.30
2022-09-30T04:58:26.780Z,15.40
2022-09-30T05:01:08.590Z,15.93
2022-09-30T05:03:41.013Z,14.85
2022-09-30T05:06:22.283Z,16.25
2022-09-30T05:08:55.494Z,15.48
2022-09-30T05:11:23.780Z,14.88
2022-09-30T05:13:51.389Z,15.20
2022-09-30T05:16:23.696Z,16.02
2022-09-30T05:18:51.375Z,14.10
2022-09-30T05:21:41.341Z,17.02
2022-09-30T05:24:13.988Z,18.35
2022-09-30T05:26:48.019Z,13.75
2022-09-30T05:29:17.686Z,17.45
2022-09-30T05:31:45.412Z,19.15
2022-09-30T05:34:25.781Z,14.93
2022-09-30T05:36:56.409Z,15.32
2022-09-30T05:39:28.628Z,18.08
2022-09-30T05:42:09.872Z,16.75
2022-09-30T05:44:46.629Z,15.20
2022-09-30T05:47:21.721Z,16.92
2022-09-30T05:49:56.267Z,17.13
2022-09-30T05:52:28.327Z,20.00
2022-09-30T05:55:07.140Z,19.08
2022-09-30T05:57:37.994Z,18.63
2022-09-30T06:00:06.625Z,19.27
2022-09-30T06:02:39.536Z,19.45
2022-09-30T06:07:55.744Z,18.52
2022-09-30T06:10:24.211Z,18.30
2022-09-30T06:12:54.358Z,21.95
2022-09-30T06:15:21.897Z,21.58
2022-09-30T06:17:53.347Z,21.75
2022-09-30T06:20:20.933Z,24.77
2022-09-30T06:25:36.453Z,32.78
2022-09-30T06:28:08.725Z,29.60
2022-09-30T06:30:50.801Z,33.33
2022-09-30T06:33:19.505Z,33.08
2022-09-30T06:35:48.908Z,41.00
2022-09-30T06:38:16.779Z,37.22
2022-09-30T06:40:52.253Z,38.55
2022-09-30T06:43:28.226Z,41.13
2022-09-30T06:46:11.711Z,41.70
2022-09-30T06:48:44.996Z,43.75
2022-09-30T06:51:12.926Z,46.58
2022-09-30T06:53:40.563Z,52.83
2022-09-30T06:56:11.535Z,47.70
2022-09-30T07:04:00.106Z,49.47
2022-09-30T07:06:40.629Z,45.13
2022-09-30T07:09:14.458Z,48.17
2022-09-30T07:11:50.178Z,44.97
2022-09-30T07:14:25.729Z,51.85
2022-09-30T07:17:06.624Z,49.53
2022-09-30T07:19:37.379Z,49.80
2022-09-30T07:22:23.798Z,43.88
2022-09-30T07:25:07.286Z,49.13
2022-09-30T07:27:35.788Z,49.92
2022-09-30T07:30:10.468Z,55.47
2022-09-30T07:32:44.649Z,49.03
2022-09-30T07:35:18.000Z,49.30
2022-09-30T07:37:49.684Z,48.42
2022-09-30T07:40:24.748Z,50.42
2022-09-30T07:42:54.782Z,49.92
2022-09-30T07:47:53.869Z,54.88
2022-09-30T07:50:26.106Z,53.42
2022-09-30T07:53:00.078Z,55.38
2022-09-30T07:55:40.209Z,59.30
2022-09-30T07:58:18.255Z,70.55
2022-09-30T08:00:52.049Z,70.38
2022-09-30T08:03:27.972Z,65.28
2022-09-30T08:06:06.101Z,60.53
2022-09-30T08:08:36.120Z,66.55
2022-09-30T08:11:14.523Z,61.67
2022-09-30T08:13:45.420Z,63.42
2022-09-30T08:16:22.499Z,68.75
2022-09-30T08:18:58.093Z,73.53
2022-09-30T08:21:31.923Z,73.47
2022-09-30T08:24:06.714Z,74.95
2022-09-30T08:26:36.615Z,64.20
2022-09-30T08:29:20.568Z,69.75
2022-09-30T08:31:53.260Z,66.35
2022-09-30T08:34:27.287Z,62.75
2022-09-30T08:36:59.487Z,63.40
2022-09-30T08:39:27.680Z,55.70
2022-09-30T08:42:39.596Z,50.28
2022-09-30T08:45:35.237Z,46.97
2022-09-30T08:48:12.397Z,43.30
2022-09-30T08:50:48.738Z,37.30
2022-09-30T08:53:34.183Z,37.63
2022-09-30T08:56:09.362Z,35.67
2022-09-30T08:58:59.243Z,31.27
2022-09-30T09:01:35.410Z,30.20
2022-09-30T09:04:04.155Z,29.02
2022-09-30T09:06:46.397Z,25.33
2022-09-30T09:09:30.816Z,24.67
2022-09-30T09:12:19.757Z,24.13
2022-09-30T09:15:09.546Z,28.05
2022-09-30T09:17:37.195Z,17.63
2022-09-30T09:20:12.926Z,17.95
2022-09-30T09:22:44.553Z,15.15
2022-09-30T09:25:16.824Z,24.17
2022-09-30T09:27:58.776Z,18.70
2022-09-30T09:30:29.133Z,16.00
2022-09-30T09:33:08.335Z,11.93
2022-09-30T09:36:05.010Z,9.23
2022-09-30T09:38:41.545Z,7.22
2022-09-30T09:41:39.349Z,7.47
2022-09-30T09:44:15.556Z,4.78
2022-09-30T09:46:51.005Z,3.92
2022-09-30T09:49:23.829Z,3.42
2022-09-30T09:52:02.931Z,4.55
2022-09-30T09:54:31.294Z,4.97
2022-09-30T09:57:09.794Z,4.47
2022-09-30T09:59:40.848Z,6.10
2022-09-30T10:02:25.754Z,5.68
2022-09-30T10:05:07.125Z,4.75
2022-09-30T10:07:40.769Z,4.60
2022-09-30T10:10:24.478Z,4.10
2022-09-30T10:12:57.617Z,3.85
2022-09-30T10:15:34.681Z,3.97
2022-09-30T10:18:17.071Z,2.88
2022-09-30T10:20:51.383Z,3.15
2022-09-30T10:23:26.833Z,4.45
2022-09-30T10:26:11.444Z,4.00
2022-09-30T10:29:00.699Z,2.55
2022-09-30T10:34:03.238Z,3.28
2022-09-30T10:36:38.372Z,3.75
2022-09-30T10:39:24.161Z,2.58
2022-09-30T10:41:56.883Z,1.90
2022-09-30T10:44:26.317Z,3.03
2022-09-30T10:49:40.103Z,2.53
2022-09-30T10:52:16.978Z,3.67
2022-09-30T10:54:54.994Z,2.75
2022-09-30T10:57:41.376Z,1.88
2022-09-30T11:00:14.785Z,3.30
2022-09-30T11:02:50.607Z,2.20
2022-09-30T11:05:25.139Z,2.43
2022-09-30T11:08:10.250Z,2.30
2022-09-30T11:10:42.498Z,4.35
2022-09-30T11:13:26.074Z,2.92
2022-09-30T11:16:12.559Z,1.98
2022-09-30T11:18:51.885Z,2.13
2022-09-30T11:21:25.114Z,2.08
2022-09-30T11:24:03.523Z,2.42
2022-09-30T11:26:48.838Z,1.40
2022-09-30T11:29:35.371Z,2.83
2022-09-30T11:32:22.288Z,2.90
2022-09-30T11:34:52.653Z,2.50
2022-09-30T11:37:21.095Z,3.70
2022-09-30T11:40:09.659Z,1.80
2022-09-30T11:42:56.045Z,3.05
2022-09-30T11:45:29.390Z,2.20
2022-09-30T11:47:57.007Z,1.52
2022-09-30T11:50:33.526Z,2.03
2022-09-30T11:53:04.040Z,3.40
2022-09-30T11:56:04.483Z,1.95
2022-09-30T11:58:42.468Z,2.03
2022-09-30T12:01:17.082Z,3.05
2022-09-30T12:03:46.668Z,2.63
2022-09-30T12:06:26.987Z,3.35
2022-09-30T12:09:02.586Z,4.05
2022-09-30T12:11:34.664Z,3.47
2022-09-30T12:14:09.857Z,3.28
2022-09-30T12:16:49.188Z,4.20
2022-09-30T12:19:23.050Z,2.97
2022-09-30T12:22:11.260Z,5.60
2022-09-30T12:24:41.753Z,6.68
2022-09-30T12:27:22.380Z,4.63
2022-09-30T12:30:12.816Z,4.47
2022-09-30T12:32:59.544Z,4.47
2022-09-30T12:35:35.707Z,6.03
2022-09-30T12:38:06.241Z,5.03
2022-09-30T12:40:55.355Z,5.40
2022-09-30T12:43:32.593Z,5.22
2022-09-30T12:46:02.943Z,6.70
2022-09-30T12:48:37.182Z,6.03
2022-09-30T12:51:05.428Z,7.05
2022-09-30T12:53:34.891Z,5.82
2022-09-30T12:58:43.390Z,5.80
2022-09-30T13:01:15.659Z,7.28
2022-09-30T13:03:49.085Z,7.43
2022-09-30T13:06:20.692Z,6.25
2022-09-30T13:08:48.909Z,6.43
2022-09-30T13:11:32.645Z,4.25
2022-09-30T13:14:05.034Z,5.28
2022-09-30T13:17:02.942Z,4.15
2022-09-30T13:19:36.881Z,3.72
2022-09-30T13:22:30.513Z,4.38
2022-09-30T13:25:03.417Z,6.07
2022-09-30T13:27:44.739Z,5.13
2022-09-30T13:30:15.805Z,4.10
2022-09-30T13:33:02.558Z,4.00
2022-09-30T13:35:33.346Z,4.40
2022-09-30T13:38:13.222Z,3.65
2022-09-30T13:41:02.698Z,5.18
2022-09-30T13:43:51.128Z,5.22
2022-09-30T13:46:26.235Z,4.78
2022-09-30T13:49:02.968Z,4.85
2022-09-30T13:51:36.293Z,4.45
2022-09-30T13:54:14.698Z,4.28
2022-09-30T13:56:44.542Z,7.95
2022-09-30T13:59:29.962Z,3.72
2022-09-30T14:02:21.441Z,5.85
2022-09-30T14:08:00.688Z,5.13
2022-09-30T14:10:49.181Z,3.25
2022-09-30T14:13:28.728Z,3.77
2022-09-30T14:16:07.615Z,4.00
2022-09-30T14:18:58.477Z,4.20
2022-09-30T14:21:26.582Z,4.35
2022-09-30T14:24:05.034Z,4.28
2022-09-30T14:26:48.780Z,3.53
2022-09-30T14:29:45.416Z,4.80
2022-09-30T14:32:19.754Z,6.43
2022-09-30T14:34:52.406Z,6.97
2022-09-30T14:37:39.247Z,6.50
2022-09-30T14:40:10.672Z,4.25
2022-09-30T14:42:44.512Z,7.30
2022-09-30T14:47:56.158Z,7.00
2022-09-30T14:50:26.338Z,4.57
2022-09-30T14:52:57.206Z,4.80
2022-09-30T14:55:35.965Z,4.45
2022-09-30T14:58:23.457Z,3.25
2022-09-30T15:01:17.830Z,4.95
2022-09-30T15:03:46.994Z,5.28
2022-09-30T15:06:41.804Z,4.22
2022-09-30T15:09:15.164Z,4.35
2022-09-30T15:11:51.481Z,4.90
2022-09-30T15:14:23.878Z,6.75
2022-09-30T15:16:58.040Z,6.22
2022-09-30T15:19:30.293Z,7.88
2022-09-30T15:22:02.576Z,8.30
2022-09-30T15:24:42.132Z,7.53
2022-09-30T15:29:55.225Z,7.80
2022-09-30T15:32:28.912Z,7.53
2022-09-30T15:35:00.802Z,7.88
2022-09-30T15:37:33.911Z,8.25
2022-09-30T15:40:23.418Z,8.20
2022-09-30T15:45:21.567Z,9.02
2022-09-30T15:47:57.949Z,8.38
2022-09-30T15:51:01.573Z,11.00
2022-09-30T15:53:35.521Z,8.60
2022-09-30T15:56:20.656Z,10.48
2022-09-30T15:58:58.391Z,10.35
2022-09-30T16:01:43.978Z,8.52
2022-09-30T16:04:15.564Z,9.13
2022-09-30T16:06:57.715Z,9.77
2022-09-30T16:09:59.247Z,10.48
2022-09-30T16:12:33.860Z,7.68
2022-09-30T16:15:20.160Z,8.60
2022-09-30T16:17:49.430Z,10.38
2022-09-30T16:20:17.664Z,10.85
2022-09-30T16:22:48.456Z,12.07
2022-09-30T16:25:33.374Z,12.00
2022-09-30T16:28:12.385Z,11.00
2022-09-30T16:30:54.341Z,9.20
2022-09-30T16:33:21.869Z,9.05
2022-09-30T16:35:49.614Z,8.95
2022-09-30T16:38:18.007Z,10.43
2022-09-30T16:40:48.303Z,9.45
2022-09-30T16:43:23.350Z,9.52
2022-09-30T16:46:04.008Z,10.73
2022-09-30T16:48:31.688Z,32.78
2022-09-30T16:51:07.856Z,15.68
2022-09-30T16:53:35.518Z,24.58
2022-09-30T16:56:03.599Z,17.27
2022-09-30T16:58:33.819Z,10.65
2022-09-30T17:01:01.607Z,12.88
2022-09-30T17:03:34.133Z,11.73
2022-09-30T17:06:01.773Z,12.25
2022-09-30T17:08:34.020Z,10.55
2022-09-30T17:11:01.615Z,8.93
2022-09-30T17:13:29.151Z,11.02
2022-09-30T17:16:06.707Z,12.57
2022-09-30T17:18:37.215Z,9.10
2022-09-30T17:21:04.792Z,9.50
2022-09-30T17:23:38.043Z,10.35
2022-09-30T17:26:09.074Z,9.18
2022-09-30T17:28:40.675Z,9.63
2022-09-30T17:31:10.844Z,9.85
2022-09-30T17:33:39.608Z,8.48
2022-09-30T17:36:21.783Z,9.73
2022-09-30T17:38:59.808Z,12.13
2022-09-30T17:41:54.392Z,10.98
2022-09-30T17:44:26.828Z,10.45
2022-09-30T17:47:02.948Z,9.05
2022-09-30T17:49:34.510Z,11.52
2022-09-30T17:52:03.544Z,8.93
2022-09-30T17:54:34.662Z,13.13
2022-09-30T17:57:02.136Z,11.43
2022-09-30T17:59:30.192Z,9.98
2022-09-30T18:01:59.651Z,9.00
2022-09-30T18:06:55.218Z,9.07
2022-09-30T18:09:29.698Z,8.60
2022-09-30T18:12:04.738Z,9.70
2022-09-30T18:14:38.474Z,9.05
2022-09-30T18:17:07.190Z,9.35
2022-09-30T18:19:35.668Z,10.27
2022-09-30T18:22:05.973Z,9.18
2022-09-30T18:24:52.039Z,8.93
2022-09-30T18:27:22.723Z,8.68
2022-09-30T18:29:50.322Z,10.30
2022-09-30T18:32:21.096Z,9.63
2022-09-30T18:34:51.315Z,10.07
2022-09-30T18:37:23.037Z,7.88
2022-09-30T18:39:51.565Z,8.80
2022-09-30T18:42:21.359Z,8.43
2022-09-30T18:44:58.546Z,9.00
2022-09-30T18:47:26.181Z,7.85
2022-09-30T18:49:53.703Z,7.47
2022-09-30T18:52:21.130Z,9.35
2022-09-30T18:54:48.880Z,9.05
2022-09-30T18:57:17.558Z,6.93
2022-09-30T18:59:48.051Z,9.10
2022-09-30T19:02:22.137Z,6.95
2022-09-30T19:05:01.259Z,9.70
2022-09-30T19:07:30.156Z,8.45
2022-09-30T19:10:03.369Z,8.07
2022-09-30T19:12:35.945Z,8.48
2022-09-30T19:15:06.727Z,7.47
2022-09-30T19:17:37.079Z,7.10
2022-09-30T19:20:05.924Z,7.72
2022-09-30T19:22:40.095Z,6.10
2022-09-30T19:25:11.590Z,9.35
2022-09-30T19:27:41.062Z,8.77
2022-09-30T19:30:10.255Z,7.25
2022-09-30T19:32:38.057Z,8.85
2022-09-30T19:35:07.180Z,8.85
2022-09-30T19:37:35.203Z,6.63
2022-09-30T19:40:17.165Z,9.48
2022-09-30T19:42:49.779Z,8.40
2022-09-30T19:45:23.167Z,8.83
2022-09-30T19:47:52.089Z,5.72
2022-09-30T19:50:21.621Z,7.18
2022-09-30T19:52:57.449Z,6.72
2022-09-30T19:55:27.928Z,7.03
2022-09-30T19:57:59.770Z,6.55
2022-09-30T20:00:27.249Z,6.32
2022-09-30T20:02:56.438Z,6.93
2022-09-30T20:05:24.398Z,8.60
2022-09-30T20:07:52.987Z,9.45
2022-09-30T20:10:20.398Z,7.87
2022-09-30T20:12:47.811Z,6.60
2022-09-30T20:15:33.930Z,6.00
2022-09-30T20:18:03.633Z,6.55
2022-09-30T20:20:37.225Z,8.77
2022-09-30T20:23:07.729Z,7.05
2022-09-30T20:25:36.230Z,6.35
2022-09-30T20:28:04.883Z,8.40
2022-09-30T20:30:33.251Z,5.05
2022-09-30T20:33:01.727Z,7.28
2022-09-30T20:35:31.579Z,7.45
2022-09-30T20:37:59.145Z,5.30
2022-09-30T20:40:29.735Z,8.23
2022-09-30T20:43:01.544Z,8.20
2022-09-30T20:45:29.500Z,7.75
2022-09-30T20:47:56.897Z,7.20
2022-09-30T20:50:36.640Z,7.63
2022-09-30T20:53:10.854Z,9.13
2022-09-30T20:55:39.519Z,9.57
2022-09-30T20:58:07.433Z,9.10
2022-09-30T21:00:36.364Z,7.28
2022-09-30T21:03:03.979Z,8.20
2022-09-30T21:05:32.264Z,8.13
2022-09-30T21:08:03.433Z,8.75
2022-09-30T21:10:32.085Z,9.27
2022-09-30T21:13:01.430Z,10.00
2022-09-30T21:15:31.327Z,8.00
2022-09-30T21:17:58.801Z,8.35
2022-09-30T21:20:26.189Z,14.00
2022-09-30T21:22:56.550Z,9.23
2022-09-30T21:25:26.223Z,8.70
2022-09-30T21:30:21.039Z,9.85
2022-09-30T21:32:48.915Z,12.82
2022-09-30T21:35:17.347Z,11.23
2022-09-30T21:37:44.816Z,8.57
2022-09-30T21:40:12.330Z,10.00
2022-09-30T21:42:40.523Z,10.32
2022-09-30T21:45:10.145Z,12.18
2022-09-30T21:47:37.646Z,11.93
2022-09-30T21:50:06.859Z,8.25
2022-09-30T21:52:38.234Z,7.10
2022-09-30T21:55:07.335Z,8.75
2022-09-30T21:57:37.852Z,6.70
2022-09-30T22:00:05.795Z,10.02
2022-09-30T22:02:41.286Z,7.63
2022-09-30T22:05:09.117Z,6.55
2022-09-30T22:07:36.668Z,7.30
2022-09-30T22:10:04.895Z,7.85
2022-09-30T22:12:35.206Z,6.65
2022-09-30T22:15:02.731Z,8.77
2022-09-30T22:17:30.040Z,11.07
2022-09-30T22:19:57.825Z,7.00
2022-09-30T22:22:27.959Z,9.73
2022-09-30T22:24:55.420Z,8.00
2022-09-30T22:27:23.145Z,7.97
2022-09-30T22:29:54.871Z,7.82
2022-09-30T22:32:22.283Z,7.22
2022-09-30T22:35:11.125Z,8.98
2022-09-30T22:37:57.327Z,7.85
2022-09-30T22:40:24.741Z,7.07
2022-09-30T22:42:53.126Z,7.63
2022-09-30T22:45:23.431Z,8.40
2022-09-30T22:47:51.072Z,8.13
2022-09-30T22:50:20.007Z,8.60
2022-09-30T22:52:47.417Z,8.05
2022-09-30T22:55:17.533Z,9.52
2022-09-30T22:57:44.970Z,7.78
2022-09-30T23:00:15.515Z,10.63
2022-09-30T23:02:43.072Z,8.95
2022-09-30T23:05:10.564Z,10.77
2022-09-30T23:07:38.544Z,9.77
2022-09-30T23:10:06.092Z,9.00
2022-09-30T23:12:35.459Z,10.10
2022-09-30T23:15:02.972Z,9.10
2022-09-30T23:17:30.547Z,9.77
2022-09-30T23:19:57.968Z,12.95
2022-09-30T23:22:25.479Z,11.30
2022-09-30T23:24:52.790Z,11.40
2022-09-30T23:27:20.226Z,8.63
2022-09-30T23:29:47.562Z,11.75
2022-09-30T23:32:15.059Z,10.57
2022-09-30T23:34:42.688Z,11.07
2022-09-30T23:37:10.017Z,10.77
2022-09-30T23:39:37.429Z,11.73
2022-09-30T23:42:07.384Z,12.32
2022-09-30T23:44:34.770Z,12.27
2022-09-30T23:47:21.489Z,13.13
2022-09-30T23:49:49.275Z,12.60
2022-09-30T23:52:19.215Z,15.10
2022-09-30T23:54:46.984Z,12.23
2022-09-30T23:57:16.691Z,15.00
2022-09-30T23:59:44.038Z,15.48
